EKSN

Sindal Airport

Sindal, Denmark
METAR EKSN 161250Z 23023KT 5000 DZRA SCT007 BKN010 07/06 Q0990
Observed Flight Rules
Jan-16 @ 12:50 UTC (6 hours ago) Marginal Visual Flight Rules
Wind Visibility Clouds Conditions
230° at 23 knots 5,005 meters
  • Scattered at 700' AGL
  • Broken at 1,000' AGL
  • Drizzle
  • Rain
Temperatures Readings
Current 7°C / 45°F
Dewpoint 6°C / 43°F
Humidity 93%
Altimeter 29.23" Hg
Pressure 989.92 hPa
Elevation 28
METAR EKSN 161250Z 23023KT 5000 DZRA SCT007 BKN010 07/06 Q0990
Observed Flight Rules
Jan-16 @ 12:50 UTC
(6 hours ago)
MVFR
Wind Visibility
230° at 23 knots 5,005 meters
Clouds
  • Scattered at 700' AGL
  • Broken at 1,000' AGL
Conditions
  • Drizzle
  • Rain
Temperature Dewpoint
7°C / 45°F 6°C / 43°F
Humidity Altimeter Pressure
93% 29.23" Hg 989.92 hPa